Time;durP1;ratioP1;P1;durP2;ratioP2;P2;SDS_P1;SDS_P2;PMS_P1;PMS_P2;Temp;Humidity;BMP_temperature;BMP_pressure;BME280_temperature;BME280_humidity;BME280_pressure;Samples;Min_cycle;Max_cycle;Signal;HPM_P1;HPM_P2
2023/09/04 00:00:04;;;;;;;;;;;;;;;;;;;;;
2023/09/04 00:03:07;;;;;;;;;10.33;10.33;;;;;25.18;42.58;100682.31;146631;571;46021;-86
2023/09/04 00:06:01;;;;;;;;;9.00;9.00;;;;;25.18;41.95;100680.53;146619;565;46016;-85
2023/09/04 00:08:57;;;;;;;;;8.33;7.33;;;;;25.17;42.11;100681.44;146627;565;48010;-82
2023/09/04 00:11:53;;;;;;;;;6.33;6.33;;;;;25.19;42.61;100673.47;146625;633;46917;-78
2023/09/04 00:14:47;;;;;;;;;10.50;9.50;;;;;25.26;41.55;100668.06;146633;636;46010;-79
2023/09/04 00:17:40;;;;;;;;;9.00;7.67;;;;;25.29;41.17;100670.69;146626;645;46917;-81
2023/09/04 00:20:32;;;;;;;;;7.00;7.00;;;;;25.28;41.24;100674.25;146625;637;46010;-83
2023/09/04 00:23:25;;;;;;;;;5.67;5.67;;;;;25.25;41.12;100668.97;146618;571;46036;-85
2023/09/04 00:26:22;;;;;;;;;6.00;6.00;;;;;25.27;40.94;100666.31;146622;566;46014;-84
2023/09/04 00:29:15;;;;;;;;;8.00;7.00;;;;;25.28;40.98;100657.44;146615;635;46034;-87
2023/09/04 00:32:09;;;;;;;;;8.33;7.00;;;;;25.28;41.33;100654.78;146628;600;46021;-85
2023/09/04 00:35:03;;;;;;;;;6.33;6.00;;;;;25.21;40.74;100648.69;146619;593;46012;-83
2023/09/04 00:37:55;;;;;;;;;6.67;5.67;;;;;25.15;40.54;100648.72;146626;565;46010;-81
2023/09/04 00:40:47;;;;;;;;;5.67;5.67;;;;;25.11;41.27;100649.63;146619;570;46017;-77
2023/09/04 00:43:41;;;;;;;;;10.33;9.00;;;;;25.12;41.45;100646.06;146622;640;46020;-75
2023/09/04 00:46:33;;;;;;;;;5.00;4.67;;;;;25.19;42.46;100645.16;146619;575;46917;-75
2023/09/04 00:49:26;;;;;;;;;7.33;7.00;;;;;25.27;42.12;100638.00;146625;576;46010;-78
2023/09/04 00:52:18;;;;;;;;;6.00;6.00;;;;;25.40;42.20;100636.09;146618;569;46916;-82
2023/09/04 00:55:14;;;;;;;;;5.33;5.33;;;;;25.49;42.18;100624.50;146624;646;46020;-79
2023/09/04 00:58:08;;;;;;;;;7.67;7.00;;;;;25.57;42.72;100635.88;146618;570;46016;-81
2023/09/04 01:01:00;;;;;;;;;8.67;7.67;;;;;25.61;43.11;100634.06;146622;582;46020;-82
2023/09/04 01:03:52;;;;;;;;;9.67;8.67;;;;;25.61;42.99;100623.44;146619;596;46012;-78
2023/09/04 01:06:44;;;;;;;;;9.00;9.00;;;;;25.57;43.57;100628.78;146623;675;47010;-78
2023/09/04 01:09:40;;;;;;;;;7.00;7.00;;;;;25.52;44.25;100625.31;146621;590;46917;-77
2023/09/04 01:12:54;;;;;;;;;9.67;8.67;;;;;25.55;44.10;100624.41;146623;579;46020;-76
2023/09/04 01:15:48;;;;;;;;;10.00;8.00;;;;;25.59;44.84;100615.50;146617;579;46016;-79
2023/09/04 01:18:49;;;;;;;;;8.33;8.33;;;;;25.64;44.61;100618.09;146624;593;46010;-82
2023/09/04 01:21:42;;;;;;;;;9.00;7.67;;;;;25.67;44.54;100612.75;146639;565;45016;-84
2023/09/04 01:24:39;;;;;;;;;10.67;9.00;;;;;25.66;44.23;100611.88;146639;571;46020;-83
2023/09/04 01:27:44;;;;;;;;;9.67;9.00;;;;;25.28;44.27;100546.84;146640;598;45016;-80
2023/09/04 01:30:48;;;;;;;;;9.33;8.67;;;;;25.64;43.86;100613.69;146641;646;45010;-81
2023/09/04 01:33:47;;;;;;;;;8.33;6.00;;;;;25.53;42.97;100597.88;146637;680;45016;-80
2023/09/04 01:36:40;;;;;;;;;6.00;6.00;;;;;25.43;43.02;100603.31;146646;593;45031;-75
2023/09/04 01:39:41;;;;;;;;;6.00;6.00;;;;;25.38;43.98;100600.72;146638;618;45017;-84
2023/09/04 01:42:51;;;;;;;;;6.00;4.67;;;;;25.41;43.79;100605.97;146642;601;45020;-79
2023/09/04 01:45:44;;;;;;;;;5.33;5.33;;;;;25.47;43.24;100599.72;146638;692;45917;-86
2023/09/04 01:48:57;;;;;;;;;7.67;5.00;;;;;25.00;43.37;100513.56;146642;564;45021;-87
2023/09/04 01:52:00;;;;;;;;;6.33;6.00;;;;;25.35;42.79;100574.19;146638;680;45016;-83
2023/09/04 01:54:52;;;;;;;;;7.00;6.33;;;;;25.26;43.00;100569.88;146643;564;45020;-82
2023/09/04 01:57:54;;;;;;;;;4.00;4.00;;;;;25.20;42.95;100566.41;146638;642;45916;-82
2023/09/04 02:00:53;;;;;;;;;6.67;6.67;;;;;25.19;43.12;100567.31;146640;584;46010;-83
2023/09/04 02:03:55;;;;;;;;;6.00;6.00;;;;;24.80;42.65;100487.28;146639;663;45915;-83
2023/09/04 02:06:56;;;;;;;;;6.00;5.00;;;;;25.24;42.87;100555.75;146643;595;46010;-86
2023/09/04 02:09:53;;;;;;;;;6.00;5.00;;;;;25.27;42.77;100550.41;146637;611;46941;-83
2023/09/04 02:12:53;;;;;;;;;5.00;5.00;;;;;24.84;43.31;100473.06;146644;609;47010;-88
2023/09/04 02:15:51;;;;;;;;;6.67;6.67;;;;;25.32;42.95;100553.88;146645;564;45012;-88
2023/09/04 02:18:50;;;;;;;;;6.67;4.67;;;;;25.33;43.19;100554.78;146646;585;45010;-85
2023/09/04 02:21:49;;;;;;;;;6.67;6.67;;;;;25.32;42.73;100553.88;146620;631;46915;-87
2023/09/04 02:24:55;;;;;;;;;6.33;6.33;;;;;25.26;42.61;100547.78;146623;593;47010;-87
2023/09/04 02:27:48;;;;;;;;;5.00;5.00;;;;;25.11;42.75;100555.00;146618;569;46016;-89
2023/09/04 02:30:44;;;;;;;;;7.67;6.67;;;;;24.99;43.15;100541.87;146621;590;46020;-87
2023/09/04 02:33:44;;;;;;;;;5.33;5.33;;;;;24.89;43.33;100545.47;146616;571;46016;-86
2023/09/04 02:36:45;;;;;;;;;8.00;8.00;;;;;24.80;43.58;100533.22;146622;580;46020;-79
2023/09/04 02:39:50;;;;;;;;;7.00;6.67;;;;;24.73;43.98;100522.69;146612;578;47013;-79
2023/09/04 02:42:48;;;;;;;;;8.00;7.33;;;;;24.64;45.12;100519.25;146620;617;48010;-79
2023/09/04 02:45:49;;;;;;;;;10.00;6.33;;;;;24.59;45.95;100523.69;146618;579;47015;-77
2023/09/04 02:49:13;;;;;;;;;7.33;6.33;;;;;24.06;45.97;100424.34;146624;592;46010;-80
2023/09/04 02:52:30;;;;;;;;;;;;;;;;;;;;;
2023/09/04 02:55:22;;;;;;;;;8.00;7.67;;;;;24.79;46.33;100530.56;146621;597;46020;-78
2023/09/04 02:58:31;;;;;;;;;;;;;;;;;;;;;
2023/09/04 03:01:30;;;;;;;;;7.33;6.67;;;;;24.97;45.85;100521.53;146621;633;46038;-77
2023/09/04 03:04:23;;;;;;;;;9.00;8.00;;;;;24.94;45.45;100513.62;146615;565;49914;-81
2023/09/04 03:07:16;;;;;;;;;6.00;6.00;;;;;24.86;45.38;100511.06;146622;645;46020;-74
2023/09/04 03:10:15;;;;;;;;;7.67;7.67;;;;;24.77;44.94;100506.75;146621;589;46012;-75
2023/09/04 03:13:14;;;;;;;;;7.33;6.00;;;;;24.71;44.76;100506.81;146622;606;47010;-84
2023/09/04 03:16:27;;;;;;;;;5.00;5.00;;;;;24.72;45.29;100507.69;146619;615;46032;-83
2023/09/04 03:19:29;;;;;;;;;9.00;7.67;;;;;24.78;45.60;100505.84;146624;644;46020;-82
2023/09/04 03:22:29;;;;;;;;;6.67;6.67;;;;;24.86;45.07;100506.66;146619;598;46016;-82
2023/09/04 03:25:32;;;;;;;;;7.67;5.33;;;;;24.90;44.29;100504.81;146621;570;48021;-81
2023/09/04 03:28:33;;;;;;;;;6.33;6.33;;;;;24.91;44.12;100508.34;146621;607;46016;-80
2023/09/04 03:31:41;;;;;;;;;6.00;5.33;;;;;24.83;44.41;100511.97;146621;564;46021;-78
2023/09/04 03:34:42;;;;;;;;;9.00;8.67;;;;;24.68;44.61;100503.31;146620;577;46016;-81
2023/09/04 03:37:43;;;;;;;;;8.67;8.00;;;;;24.61;45.02;100503.38;146624;559;47015;-78
2023/09/04 03:40:35;;;;;;;;;5.33;5.00;;;;;24.57;44.94;100508.69;146614;591;46030;-78
2023/09/04 03:43:34;;;;;;;;;10.00;7.00;;;;;24.58;45.06;100508.69;146623;571;46020;-77
2023/09/04 03:46:31;;;;;;;;;8.00;8.00;;;;;24.59;44.40;100506.91;146620;611;46012;-76
2023/09/04 03:49:57;;;;;;;;;;;;;;;;;;;;;
2023/09/04 03:53:04;;;;;;;;;;;;;;;;;;;;;
2023/09/04 03:56:18;;;;;;;;;7.00;5.00;;;;;24.51;44.90;100500.81;146622;599;47010;-78
2023/09/04 03:59:18;;;;;;;;;7.33;6.00;;;;;24.42;45.32;100507.06;146619;570;46017;-77
2023/09/04 04:02:10;;;;;;;;;7.00;7.00;;;;;24.35;45.54;100514.16;146624;567;47010;-78
2023/09/04 04:05:06;;;;;;;;;7.00;6.00;;;;;24.40;45.59;100528.25;146621;617;47012;-82
2023/09/04 04:08:05;;;;;;;;;7.00;6.00;;;;;24.52;46.46;100542.34;146620;608;46021;-85
2023/09/04 04:11:04;;;;;;;;;7.67;7.33;;;;;24.71;45.77;100540.41;146617;640;47014;-79
2023/09/04 04:14:02;;;;;;;;;8.67;8.00;;;;;24.78;45.36;100537.66;146620;595;47015;-77
2023/09/04 04:17:14;;;;;;;;;10.00;10.00;;;;;24.76;45.16;100539.44;146617;587;46016;-79
2023/09/04 04:20:13;;;;;;;;;9.00;9.00;;;;;24.72;45.14;100521.81;146614;582;47010;-78
2023/09/04 04:23:11;;;;;;;;;11.67;8.33;;;;;24.71;44.67;100521.84;146616;666;46014;-79
2023/09/04 04:26:25;;;;;;;;;11.00;8.33;;;;;24.79;45.23;100517.31;146622;565;47010;-80
2023/09/04 04:29:33;;;;;;;;;6.67;6.67;;;;;24.68;44.67;100477.66;146621;580;46012;-79
2023/09/04 04:32:28;;;;;;;;;9.33;7.67;;;;;24.95;44.36;100504.75;146616;577;46020;-78
2023/09/04 04:35:44;;;;;;;;;11.33;10.67;;;;;25.07;47.26;100502.84;146617;596;46016;-80
2023/09/04 04:38:36;;;;;;;;;10.00;9.00;;;;;25.20;47.46;100498.28;146615;575;47014;-78
2023/09/04 04:41:28;;;;;;;;;10.67;10.67;;;;;25.41;47.78;100510.41;146616;606;47012;-76
2023/09/04 04:44:31;;;;;;;;;11.00;11.00;;;;;25.60;46.93;100512.84;146613;578;47011;-77
2023/09/04 04:47:35;;;;;;;;;15.00;12.67;;;;;24.93;47.28;100366.88;146613;588;46016;-76
2023/09/04 04:50:28;;;;;;;;;13.25;11.50;;;;;25.82;47.82;100498.37;146613;623;46015;-76
2023/09/04 04:53:33;;;;;;;;;9.00;9.00;;;;;25.87;45.43;100485.91;146612;641;46017;-77
2023/09/04 04:56:29;;;;;;;;;8.00;7.67;;;;;25.91;44.02;100479.62;146623;577;46020;-78
2023/09/04 04:59:50;;;;;;;;;10.67;9.33;;;;;25.95;43.32;100481.37;146620;583;46013;-74
2023/09/04 05:02:51;;;;;;;;;11.00;11.00;;;;;26.01;46.69;100475.06;146619;693;46020;-78
2023/09/04 05:06:01;;;;;;;;;14.50;12.50;;;;;26.02;46.30;100474.16;146611;571;46016;-77
2023/09/04 05:08:59;;;;;;;;;12.67;12.67;;;;;26.11;46.75;100478.47;146615;670;47021;-78
2023/09/04 05:12:15;;;;;;;;;12.75;10.75;;;;;25.65;45.96;100395.03;146612;622;46016;-76
2023/09/04 05:15:51;;;;;;;;;9.33;9.33;;;;;26.16;45.08;100479.25;146615;596;46020;-76
2023/09/04 05:18:46;;;;;;;;;8.67;8.67;;;;;26.19;42.93;100479.19;146616;583;46016;-74
2023/09/04 05:22:02;;;;;;;;;9.67;8.33;;;;;26.20;44.82;100487.16;146623;648;47011;-72
2023/09/04 05:25:14;;;;;;;;;9.67;9.00;;;;;26.22;45.56;100500.41;146613;580;49012;-75
2023/09/04 05:28:15;;;;;;;;;9.00;7.67;;;;;26.21;45.67;100490.69;146619;592;47012;-75
2023/09/04 05:31:11;;;;;;;;;9.67;8.67;;;;;26.21;44.91;100488.03;146616;580;46037;-76
2023/09/04 05:34:14;;;;;;;;;10.33;9.33;;;;;26.22;45.49;100493.31;146616;570;47010;-74
2023/09/04 05:37:28;;;;;;;;;10.00;10.00;;;;;25.74;45.52;100420.59;146619;636;46916;-74
2023/09/04 05:40:31;;;;;;;;;8.33;8.33;;;;;26.19;45.82;100498.66;146614;647;46020;-78
2023/09/04 05:43:53;;;;;;;;;11.00;11.00;;;;;26.18;46.10;100506.69;146613;639;46017;-80
2023/09/04 05:47:02;;;;;;;;;;;;;;;;;;;;;
2023/09/04 05:50:01;;;;;;;;;11.33;11.00;;;;;26.06;46.35;100498.91;146612;620;47012;-79
2023/09/04 05:53:02;;;;;;;;;11.67;11.67;;;;;26.01;46.18;100494.56;146615;581;46020;-82
2023/09/04 05:56:17;;;;;;;;;13.00;11.00;;;;;25.91;47.29;100506.19;146612;647;46016;-79
2023/09/04 05:59:32;;;;;;;;;10.00;9.00;;;;;25.79;46.96;100512.56;146614;617;47014;-79
2023/09/04 06:02:42;;;;;;;;;13.50;12.00;;;;;25.03;47.62;100413.59;146615;656;46016;-77
2023/09/04 06:05:50;;;;;;;;;10.33;10.33;;;;;25.59;47.54;100522.59;146616;576;46010;-73
2023/09/04 06:09:02;;;;;;;;;11.00;10.33;;;;;25.50;48.69;100517.41;146609;612;47012;-71
2023/09/04 06:12:02;;;;;;;;;13.33;10.67;;;;;25.40;49.34;100500.72;146615;629;46020;-71
2023/09/04 06:15:01;;;;;;;;;9.00;8.00;;;;;25.33;49.39;100507.87;146611;594;47012;-73
2023/09/04 06:18:00;;;;;;;;;9.00;9.00;;;;;25.32;49.47;100514.06;146620;611;46020;-71
2023/09/04 06:21:04;;;;;;;;;12.67;11.00;;;;;25.29;50.02;100500.84;146616;569;46016;-76
2023/09/04 06:24:06;;;;;;;;;11.00;10.67;;;;;25.26;49.93;100497.34;146616;595;46020;-73
2023/09/04 06:27:01;;;;;;;;;11.33;10.33;;;;;25.26;49.55;100500.00;146609;599;46013;-76
2023/09/04 06:29:55;;;;;;;;;14.00;13.33;;;;;24.87;49.33;100423.53;146611;566;48010;-74
2023/09/04 06:32:50;;;;;;;;;11.33;11.00;;;;;25.35;49.23;100489.28;146613;634;46016;-75
2023/09/04 06:35:43;;;;;;;;;12.00;11.00;;;;;25.41;49.35;100491.84;146610;678;46021;-74
2023/09/04 06:38:37;;;;;;;;;12.00;12.00;;;;;25.42;50.90;100495.38;146611;580;46016;-74
2023/09/04 06:41:50;;;;;;;;;11.00;10.00;;;;;25.38;51.08;100504.28;146613;602;46020;-73
2023/09/04 06:45:06;;;;;;;;;14.00;13.00;;;;;25.35;51.26;100490.16;146611;707;46034;-74
2023/09/04 06:48:02;;;;;;;;;15.67;12.67;;;;;25.34;51.50;100496.34;146613;576;46020;-74
2023/09/04 06:51:16;;;;;;;;;;;;;;;;;;;;;
2023/09/04 06:54:14;;;;;;;;;15.00;13.00;;;;;25.15;54.62;100528.47;146615;629;46020;-74
2023/09/04 06:57:20;;;;;;;;;12.00;11.67;;;;;24.96;55.12;100520.69;146613;589;46013;-74
2023/09/04 07:00:35;;;;;;;;;;;;;;;;;;;;;
2023/09/04 07:03:30;;;;;;;;;10.67;10.33;;;;;24.58;57.28;100539.59;146612;571;46016;-75
2023/09/04 07:06:39;;;;;;;;;12.00;11.33;;;;;24.38;58.29;100540.62;146612;707;46014;-74
2023/09/04 07:09:35;;;;;;;;;10.33;10.00;;;;;24.31;58.07;100546.00;146611;589;47012;-75
2023/09/04 07:12:44;;;;;;;;;13.00;11.67;;;;;24.26;57.03;100550.44;146613;587;46014;-73
2023/09/04 07:15:45;;;;;;;;;12.00;10.67;;;;;24.25;56.50;100549.56;146609;737;47014;-74
2023/09/04 07:18:54;;;;;;;;;8.00;7.33;;;;;24.29;56.20;100550.44;146614;587;46011;-74
2023/09/04 07:22:04;;;;;;;;;8.00;7.33;;;;;24.35;55.53;100545.97;146631;600;45016;-75
2023/09/04 07:24:59;;;;;;;;;4.00;4.00;;;;;24.43;55.18;100559.19;146634;646;47010;-76
2023/09/04 07:28:03;;;;;;;;;2.00;1.67;;;;;24.53;54.77;100565.28;146624;589;46012;-74
2023/09/04 07:31:24;;;;;;;;;1.00;0.67;;;;;24.63;53.16;100559.00;146635;580;45029;-74
2023/09/04 07:34:48;;;;;;;;;0.67;0.67;;;;;24.72;52.25;100566.88;146633;591;45016;-74
2023/09/04 07:37:43;;;;;;;;;0.00;0.00;;;;;24.77;51.56;100566.84;146635;571;44051;-74
2023/09/04 07:40:44;;;;;;;;;0.00;0.00;;;;;24.80;49.18;100573.00;146631;564;45915;-74
2023/09/04 07:43:41;;;;;;;;;0.00;0.00;;;;;24.79;49.70;100576.53;146637;631;46048;-75
2023/09/04 07:46:37;;;;;;;;;0.00;0.00;;;;;24.27;50.11;100504.50;146631;569;45915;-75
2023/09/04 07:49:42;;;;;;;;;0.00;0.00;;;;;24.66;52.12;100614.66;146634;689;45020;-72
2023/09/04 07:52:40;;;;;;;;;0.00;0.00;;;;;24.51;58.32;100634.22;146634;699;45914;-72
2023/09/04 07:55:41;;;;;;;;;0.00;0.00;;;;;24.19;58.63;100631.75;146632;564;45021;-76
2023/09/04 07:58:42;;;;;;;;;0.00;0.00;;;;;23.84;61.93;100642.53;146628;579;46021;-74
2023/09/04 08:01:38;;;;;;;;;0.00;0.00;;;;;23.42;60.85;100647.06;146637;589;45020;-76
2023/09/04 08:04:34;;;;;;;;;1.67;0.00;;;;;23.05;62.62;100661.25;146631;742;45915;-75
2023/09/04 08:07:29;;;;;;;;;0.00;0.00;;;;;22.81;65.09;100635.66;146634;577;45020;-75
2023/09/04 08:10:22;;;;;;;;;0.00;0.00;;;;;22.64;63.95;100649.75;146631;700;46012;-75
2023/09/04 08:13:20;;;;;;;;;0.00;0.00;;;;;22.50;62.87;100671.75;146634;599;45020;-75
2023/09/04 08:16:23;;;;;;;;;0.00;0.00;;;;;22.31;62.73;100669.97;146634;584;46012;-74
2023/09/04 08:19:26;;;;;;;;;0.00;0.00;;;;;22.10;61.81;100678.66;146635;583;45020;-74
2023/09/04 08:22:40;;;;;;;;;0.00;0.00;;;;;21.86;61.38;100688.25;146619;578;46914;-76
2023/09/04 08:25:36;;;;;;;;;0.33;0.00;;;;;21.61;65.83;100687.22;146621;688;47012;-75
2023/09/04 08:28:42;;;;;;;;;0.00;0.00;;;;;21.32;65.25;100681.75;146620;584;46914;-74
2023/09/04 08:31:44;;;;;;;;;0.00;0.00;;;;;21.10;67.72;100674.59;146622;589;47010;-72
2023/09/04 08:35:03;;;;;;;;;0.00;0.00;;;;;20.49;66.26;100590.59;146619;573;47012;-74
2023/09/04 08:38:07;;;;;;;;;0.00;0.00;;;;;20.86;66.64;100668.22;146620;566;46021;-73
2023/09/04 08:41:18;;;;;;;;;0.00;0.00;;;;;20.80;66.96;100678.72;146617;573;46014;-77
2023/09/04 08:44:39;;;;;;;;;;;;;;;;;;;;;
2023/09/04 08:47:48;;;;;;;;;0.00;0.00;;;;;20.90;68.08;100677.03;146619;715;46016;-74
2023/09/04 08:50:46;;;;;;;;;0.00;0.00;;;;;20.95;67.27;100684.13;146620;728;46020;-73
2023/09/04 08:53:57;;;;;;;;;;;;;;;;;;;;;
2023/09/04 08:57:15;;;;;;;;;0.00;0.00;;;;;21.08;68.56;100692.13;146622;625;46010;-75
2023/09/04 09:00:20;;;;;;;;;1.33;0.33;;;;;20.25;69.56;100525.44;146617;593;47014;-75
2023/09/04 09:03:21;;;;;;;;;1.00;0.67;;;;;21.23;69.58;100686.97;146623;656;46010;-74
2023/09/04 09:06:23;;;;;;;;;3.00;3.00;;;;;21.31;70.54;100693.19;146619;632;46016;-75
2023/09/04 09:09:32;;;;;;;;;5.33;5.33;;;;;20.65;65.95;100557.38;146621;689;46010;-75
2023/09/04 09:12:28;;;;;;;;;6.00;6.00;;;;;21.37;67.60;100685.34;146618;620;46016;-74
2023/09/04 09:15:26;;;;;;;;;8.67;7.00;;;;;21.40;65.95;100688.00;146623;588;46010;-75
2023/09/04 09:18:56;;;;;;;;;6.33;6.33;;;;;21.36;69.08;100690.59;146618;609;46917;-74
2023/09/04 09:21:55;;;;;;;;;3.00;3.00;;;;;21.13;72.46;100691.31;146626;588;46022;-73
2023/09/04 09:25:13;;;;;;;;;1.67;1.00;;;;;20.91;73.99;100682.34;146632;577;45917;-75
2023/09/04 09:28:19;;;;;;;;;3.33;3.00;;;;;20.81;75.87;100696.31;146640;620;46010;-72
2023/09/04 09:31:22;;;;;;;;;3.00;3.00;;;;;20.75;72.45;100688.34;146635;659;45016;-74
2023/09/04 09:34:26;;;;;;;;;2.00;2.00;;;;;20.79;72.80;100689.25;146633;585;45021;-73
2023/09/04 09:37:38;;;;;;;;;4.33;3.67;;;;;20.86;72.50;100686.69;146632;569;45863;-74
2023/09/04 09:40:47;;;;;;;;;0.00;0.00;;;;;20.97;70.54;100694.69;146634;684;46010;-74
2023/09/04 09:43:50;;;;;;;;;0.00;0.00;;;;;21.10;74.30;100696.56;146631;563;46017;-74
2023/09/04 09:46:53;;;;;;;;;2.00;0.00;;;;;21.16;73.42;100686.06;146638;572;45021;-74
2023/09/04 09:49:55;;;;;;;;;0.00;0.00;;;;;21.25;75.00;100681.72;146626;572;46012;-74
2023/09/04 09:53:24;;;;;;;;;2.67;1.33;;;;;21.31;68.00;100694.91;146636;620;45020;-73
2023/09/04 09:56:28;;;;;;;;;1.00;1.00;;;;;21.40;69.55;100703.84;146633;712;46012;-73
2023/09/04 09:59:27;;;;;;;;;0.67;0.67;;;;;21.52;76.05;100708.28;146638;577;46010;-73
2023/09/04 10:02:40;;;;;;;;;4.00;2.33;;;;;21.59;67.87;100707.47;146634;607;45017;-74
2023/09/04 10:05:57;;;;;;;;;6.00;4.00;;;;;21.67;72.68;100715.41;146635;575;46022;-75
2023/09/04 10:09:31;;;;;;;;;2.00;2.00;;;;;21.71;75.45;100701.34;146637;570;45013;-76
2023/09/04 10:12:55;;;;;;;;;4.33;2.67;;;;;21.68;73.68;100707.53;146635;597;45020;-76
2023/09/04 10:16:08;;;;;;;;;3.67;3.67;;;;;21.70;72.37;100696.09;146633;692;45017;-76
2023/09/04 10:19:09;;;;;;;;;3.67;3.33;;;;;21.78;72.51;100715.50;146636;598;45014;-74
2023/09/04 10:22:20;;;;;;;;;6.00;5.00;;;;;21.89;70.35;100708.50;146620;609;46012;-75
2023/09/04 10:25:58;;;;;;;;;4.33;4.33;;;;;21.09;67.83;100539.25;146624;605;47025;-75
2023/09/04 10:29:39;;;;;;;;;4.33;3.00;;;;;21.58;67.44;100628.28;146619;636;46014;-74
2023/09/04 10:32:50;;;;;;;;;5.33;4.33;;;;;22.19;69.08;100702.50;146622;572;46021;-75
2023/09/04 10:36:09;;;;;;;;;4.67;4.67;;;;;21.16;67.77;100517.31;146618;593;46016;-75
2023/09/04 10:39:26;;;;;;;;;3.00;3.00;;;;;21.22;67.10;100521.72;146620;567;46023;-77
2023/09/04 10:42:26;;;;;;;;;5.33;5.00;;;;;22.25;71.14;100701.66;146619;615;46016;-75
2023/09/04 10:45:42;;;;;;;;;6.33;4.67;;;;;21.18;69.27;100535.75;146622;590;46011;-76
2023/09/04 10:49:02;;;;;;;;;3.00;3.00;;;;;22.08;67.76;100705.06;146620;569;46012;-76
2023/09/04 10:52:06;;;;;;;;;5.67;4.00;;;;;22.01;70.96;100712.97;146623;610;46010;-76
2023/09/04 10:55:21;;;;;;;;;3.33;2.33;;;;;21.02;68.11;100550.59;146618;569;46014;-77
2023/09/04 10:58:31;;;;;;;;;5.33;3.67;;;;;21.96;70.33;100718.19;146624;572;46010;-77
2023/09/04 11:01:48;;;;;;;;;4.33;3.67;;;;;21.92;70.89;100713.78;146621;622;46013;-75
2023/09/04 11:04:51;;;;;;;;;3.00;3.00;;;;;21.88;73.61;100717.31;146625;572;46014;-75
2023/09/04 11:07:48;;;;;;;;;4.67;3.67;;;;;21.30;74.17;100638.66;146620;565;46016;-75
2023/09/04 11:11:03;;;;;;;;;5.00;4.33;;;;;21.68;74.10;100720.72;146625;565;46031;-75
2023/09/04 11:14:35;;;;;;;;;3.00;3.00;;;;;21.67;70.05;100710.16;146616;634;46016;-76
2023/09/04 11:17:57;;;;;;;;;4.33;4.00;;;;;21.27;71.37;100621.94;146621;577;46023;-75
2023/09/04 11:24:22;;;;;;;;;4.00;4.00;;;;;20.82;72.56;100524.16;146619;570;46021;-77
2023/09/04 11:27:38;;;;;;;;;3.00;3.00;;;;;21.05;71.22;100557.66;146621;597;46916;-75
2023/09/04 11:30:54;;;;;;;;;6.00;5.00;;;;;21.90;73.15;100695.31;146624;630;46021;-77
2023/09/04 11:34:12;;;;;;;;;4.00;3.00;;;;;20.95;69.87;100523.34;146618;595;46018;-77
2023/09/04 11:37:08;;;;;;;;;4.67;3.00;;;;;22.02;73.24;100686.53;146621;603;47011;-77
2023/09/04 11:40:21;;;;;;;;;5.00;2.00;;;;;22.11;70.33;100683.06;146615;660;46016;-77
2023/09/04 11:43:38;;;;;;;;;3.00;2.00;;;;;21.21;71.08;100504.13;146626;585;45020;-77
2023/09/04 11:46:50;;;;;;;;;5.00;5.00;;;;;22.29;75.47;100672.59;146615;622;46017;-76
2023/09/04 11:49:45;;;;;;;;;2.67;2.00;;;;;22.30;74.38;100669.06;146620;575;47020;-76
2023/09/04 11:52:47;;;;;;;;;4.33;4.00;;;;;22.34;73.64;100676.12;146618;565;47012;-77
2023/09/04 11:55:43;;;;;;;;;5.33;3.33;;;;;22.34;71.65;100670.84;146623;633;46020;-77
2023/09/04 11:58:42;;;;;;;;;4.00;4.00;;;;;22.36;71.65;100668.19;146619;686;46016;-77
2023/09/04 12:01:47;;;;;;;;;5.33;5.33;;;;;22.38;70.89;100677.00;146621;570;46020;-77
2023/09/04 12:04:45;;;;;;;;;3.33;3.33;;;;;22.41;71.25;100670.87;146618;565;46915;-76
2023/09/04 12:07:37;;;;;;;;;4.67;4.67;;;;;22.39;72.32;100669.97;146623;566;46021;-75
2023/09/04 12:10:46;;;;;;;;;8.67;7.33;;;;;22.32;70.79;100666.44;146622;571;46012;-75
2023/09/04 12:13:49;;;;;;;;;2.67;2.67;;;;;22.22;68.68;100662.03;146622;608;46021;-76
2023/09/04 12:16:58;;;;;;;;;5.33;4.67;;;;;22.10;71.22;100666.34;146620;569;46034;-74
2023/09/04 12:20:09;;;;;;;;;4.00;3.67;;;;;21.94;74.23;100661.88;146619;586;46020;-76
2023/09/04 12:23:30;;;;;;;;;5.00;4.00;;;;;21.78;73.02;100657.44;146620;598;46014;-75
2023/09/04 12:26:27;;;;;;;;;3.00;2.67;;;;;21.63;72.66;100652.97;146624;598;46014;-75
2023/09/04 12:29:40;;;;;;;;;2.00;2.00;;;;;21.50;75.99;100651.13;146620;625;46017;-75
2023/09/04 12:32:44;;;;;;;;;2.00;2.00;;;;;21.26;76.76;100644.81;146622;587;46023;-76
2023/09/04 12:35:43;;;;;;;;;3.00;3.00;;;;;21.08;74.71;100645.56;146620;589;46012;-75
2023/09/04 12:38:47;;;;;;;;;4.67;3.00;;;;;21.02;75.06;100647.25;146616;582;46021;-76
2023/09/04 12:42:03;;;;;;;;;5.00;5.00;;;;;20.88;76.97;100637.50;146619;575;46012;-78
2023/09/04 12:45:04;;;;;;;;;6.00;5.00;;;;;20.76;79.01;100637.41;146625;596;46010;-75
2023/09/04 12:48:28;;;;;;;;;4.00;3.00;;;;;20.65;79.95;100637.28;146618;602;46016;-76
2023/09/04 12:51:25;;;;;;;;;4.67;4.00;;;;;20.55;81.93;100632.81;146615;599;46021;-76
2023/09/04 12:54:22;;;;;;;;;4.67;3.67;;;;;20.47;81.79;100622.19;146616;586;46914;-76
2023/09/04 12:57:18;;;;;;;;;5.00;4.00;;;;;20.43;82.22;100619.50;146622;571;46020;-76
2023/09/04 13:00:24;;;;;;;;;5.00;3.67;;;;;20.37;83.53;100612.44;146618;592;46014;-74
2023/09/04 13:03:18;;;;;;;;;5.00;4.00;;;;;20.35;84.16;100602.78;146622;632;46037;-77
2023/09/04 13:06:16;;;;;;;;;3.33;3.33;;;;;20.34;83.75;100606.25;146619;665;46917;-76
2023/09/04 13:09:18;;;;;;;;;3.00;2.00;;;;;20.28;82.72;100604.47;146623;577;46010;-77
2023/09/04 13:12:24;;;;;;;;;;;;;;;;;;;;;
2023/09/04 13:15:24;;;;;;;;;3.00;2.00;;;;;20.26;83.29;100590.41;146623;569;46021;-75
2023/09/04 13:18:34;;;;;;;;;2.33;2.33;;;;;20.25;82.78;100594.78;146616;633;45577;-76
2023/09/04 13:21:38;;;;;;;;;1.00;1.00;;;;;20.22;81.58;100592.13;146640;565;45010;-75
2023/09/04 13:24:43;;;;;;;;;2.67;1.00;;;;;20.22;81.27;100596.50;146631;633;46014;-75
2023/09/04 13:27:50;;;;;;;;;2.00;2.00;;;;;19.10;80.76;100408.53;146638;606;45020;-75
2023/09/04 13:30:47;;;;;;;;;4.00;1.33;;;;;20.26;81.04;100598.28;146635;675;45917;-76
2023/09/04 13:33:45;;;;;;;;;2.00;1.33;;;;;20.29;82.13;100596.56;146631;574;46010;-75
2023/09/04 13:36:47;;;;;;;;;6.00;5.00;;;;;20.32;83.75;100593.09;146633;566;45017;-75
2023/09/04 13:40:03;;;;;;;;;5.00;5.00;;;;;19.18;83.96;100400.72;146637;610;45020;-75
2023/09/04 13:43:02;;;;;;;;;5.00;4.00;;;;;20.25;82.64;100581.62;146632;579;45912;-76
2023/09/04 13:45:59;;;;;;;;;3.00;2.33;;;;;20.23;84.48;100578.09;146637;575;45020;-76
2023/09/04 13:49:04;;;;;;;;;4.00;4.00;;;;;20.21;84.51;100571.91;146634;570;45914;-76
2023/09/04 13:52:21;;;;;;;;;3.67;3.67;;;;;20.17;85.45;100570.13;146635;601;46010;-74
2023/09/04 13:55:28;;;;;;;;;4.67;4.67;;;;;20.10;83.35;100572.69;146634;577;45912;-75
2023/09/04 13:58:20;;;;;;;;;6.67;5.67;;;;;20.07;83.82;100565.66;146638;683;45021;-75
2023/09/04 14:01:25;;;;;;;;;5.67;4.67;;;;;20.04;84.27;100563.84;146636;631;45016;-75
2023/09/04 14:04:27;;;;;;;;;4.33;3.33;;;;;20.05;83.16;100562.09;146638;599;45020;-75
2023/09/04 14:07:40;;;;;;;;;5.00;4.67;;;;;20.05;82.45;100568.25;146635;586;45016;-76
2023/09/04 14:10:51;;;;;;;;;4.67;4.67;;;;;20.04;83.12;100552.44;146636;564;47020;-75
2023/09/04 14:14:04;;;;;;;;;7.00;5.67;;;;;19.47;84.92;100450.97;146635;629;46012;-74
2023/09/04 14:17:14;;;;;;;;;6.33;6.00;;;;;19.96;84.44;100543.59;146635;592;46010;-75
2023/09/04 14:20:21;;;;;;;;;7.00;4.67;;;;;19.99;80.39;100541.00;146625;637;46013;-76
2023/09/04 14:23:34;;;;;;;;;5.33;5.33;;;;;19.03;82.51;100354.12;146622;610;47010;-75
2023/09/04 14:26:46;;;;;;;;;4.67;4.00;;;;;20.05;82.85;100512.97;146615;579;46016;-74
2023/09/04 14:29:46;;;;;;;;;3.67;3.33;;;;;20.02;84.11;100497.16;146621;644;46010;-76
2023/09/04 14:32:38;;;;;;;;;4.33;4.33;;;;;20.00;82.83;100506.81;146620;577;46012;-75